FRIANT DAM (MILLERTON) (MIL)

Elevation: 581' · SAN JOAQUIN R basin · Operator: US Bureau of Reclamation

Provisional data, subject to change.
Query executed Saturday at 18:13:24

Select a sensor type for a plot of data.
Note: Reservoir Flows are daily averages.

Earlier

Date RES ELE    STORAGE    RES CHG    TOC STO    ABV TOC    OUTFLOW    INFLOW    EVAP    FNF    RIV REL    PPT INC    SPILL   
 FEET   AF   AF   AF   AF   CFS   CFS   CFS   CFS   CFS   INCHES   CFS  
11/11/2016 505.82 233175 2645 403409 -170234 528 1883 21 762 418 0.00 0
11/12/2016 506.75 236055 2880 405121 -169066 418 1883 13 652 418 0.00 0
11/13/2016 507.68 238956 2901 406956 -168000 420 1898 15 735 420 0.00 0
11/14/2016 508.48 241469 2513 408795 -167326 468 1747 12 594 468 0.00 0
11/15/2016 509.47 244601 3132 411202 -166601 486 2072 7 531 486 0.00 0
11/16/2016 510.52 247945 3344 412115 -164170 487 2185 12 455 e 487 0.00 0
11/17/2016 511.69 251699 3754 411202 -159503 455 2365 17 455 e 455 0.00 0
11/18/2016 512.36 253865 2166 417455 -163590 309 1416 15 455 e 309 0.00 0
11/19/2016 513.36 257118 3253 419322 -162204 229 1888 19 454 e 229 0.00 0
11/20/2016 514.49 260825 3707 421641 -160816 232 2107 6 400 232 0.38 0
11/21/2016 515.76 265028 4203 424236 -159208 232 2359 8 479 232 0.01 0
11/22/2016 516.82 268569 3541 426431 -157862 234 2030 11 584 e 234 0.07 0
11/23/2016 518.06 272747 4178 426431 -153684 234 2343 3 584 e 234 0.00 0
11/24/2016 519.06 276146 3399 429244 -153098 234 1959 11 583 e 234 0.00 0
11/25/2016 519.92 279090 2944 430287 -151197 221 1709 4 333 221 0.00 0
11/26/2016 520.81 282151 3061 431405 -149254 209 1758 6 546 209 1.02 0
11/27/2016 521.79 285543 3392 432367 -146824 189 1910 11 931 189 0.08 0
11/28/2016 522.94 289553 4010 434541 -144988 175 2202 5 441 175 0.00 0
11/29/2016 524.37 294593 5040 435500 -140907 175 2721 5 427 175 0.00 0
11/30/2016 525.12 297254 2661 435500 -138246 176 1521 3 537 176 0.00 0
12/01/2016 525.89 300003 2749 435500 -135497 176 1565 3 445 176 0.00 0
12/02/2016 526.79 303238 3235 435500 -132262 186 1817 0 473 e 186 0.00 0
12/03/2016 527.54 305949 2711 435500 -129551 203 1572 2 365 203 0.00 0
12/04/2016 528.22 308418 2469 435500 -127082 203 1453 5 472 e 203 0.00 0
12/05/2016 529.14 311780 3362 435500 -123720 204 1906 7 494 204 0.00 0
12/06/2016 529.87 314462 2682 435500 -121038 202 1558 4 225 202 0.00 0
12/07/2016 530.35 316229 1767 435500 -119271 202 1093 0 304 202 0.22 0
12/08/2016 530.84 318034 1805 435500 -117466 204 1121 7 1007 204 0.44 0
12/09/2016 531.18 319291 1257 435500 -116209 204 845 7 791 204 0.02 0
12/10/2016 -- -- -- -- -- -- -- -- -- -- -- --

Later | Latest

Warning! This data is preliminary and subject to revision.

Show MIL Map | Plot MIL Data | 1 Month MIL Data | Real-Time MIL Data | MIL Info